createdAt,value
2022-11-06T00:00:48.824Z,100309.03
2022-11-06T00:01:50.476Z,100306.47
2022-11-06T00:02:52.282Z,100301.34
2022-11-06T00:03:54.987Z,100312.47
2022-11-06T00:05:16.816Z,100309.03
2022-11-06T00:06:37.642Z,100318.50
2022-11-06T00:07:41.491Z,100316.81
2022-11-06T00:08:43.143Z,100315.91
2022-11-06T00:09:44.930Z,100302.13
2022-11-06T00:10:46.651Z,100318.50
2022-11-06T00:11:50.643Z,100316.72
2022-11-06T00:12:53.274Z,100327.97
2022-11-06T00:13:55.034Z,100327.13
2022-11-06T00:14:56.911Z,100306.56
2022-11-06T00:16:03.022Z,100326.25
2022-11-06T00:17:04.792Z,100314.25
2022-11-06T00:18:06.651Z,100330.66
2022-11-06T00:19:09.265Z,100329.78
2022-11-06T00:20:11.089Z,100316.03
2022-11-06T00:21:20.218Z,100326.34
2022-11-06T00:22:23.385Z,100331.59
2022-11-06T00:23:25.832Z,100328.22
2022-11-06T00:24:27.861Z,100306.84
2022-11-06T00:25:29.573Z,100305.09
2022-11-06T00:26:32.579Z,100337.75
2022-11-06T00:27:37.423Z,100328.34
2022-11-06T00:28:40.304Z,100337.88
2022-11-06T00:29:42.583Z,100339.72
2022-11-06T00:30:44.422Z,100345.91
2022-11-06T00:31:46.048Z,100337.34
2022-11-06T00:32:48.133Z,100355.50
2022-11-06T00:33:50.495Z,100335.81
2022-11-06T00:34:52.168Z,100354.75
2022-11-06T00:35:53.870Z,100350.44
2022-11-06T00:36:55.594Z,100341.94
2022-11-06T00:37:57.587Z,100349.75
2022-11-06T00:39:00.227Z,100354.09
2022-11-06T00:40:02.212Z,100349.66
2022-11-06T00:41:06.442Z,100341.09
2022-11-06T00:42:09.094Z,100348.81
2022-11-06T00:43:10.761Z,100354.06
2022-11-06T00:44:12.535Z,100346.34
2022-11-06T00:45:14.186Z,100332.66
2022-11-06T00:46:16.830Z,100360.16
2022-11-06T00:47:18.428Z,100354.16
2022-11-06T00:48:20.107Z,100352.47
2022-11-06T00:49:21.813Z,100353.34
2022-11-06T00:50:26.557Z,100349.97
2022-11-06T00:51:32.902Z,100350.78
2022-11-06T00:52:34.530Z,100349.94
2022-11-06T00:53:36.696Z,100350.81
2022-11-06T00:54:38.625Z,100343.97
2022-11-06T00:55:40.204Z,100331.91
2022-11-06T00:56:42.138Z,100349.16
2022-11-06T00:57:44.293Z,100365.63
2022-11-06T00:58:47.789Z,100356.22
2022-11-06T00:59:49.539Z,100346.78
2022-11-06T01:00:51.417Z,100361.50
2022-11-06T01:01:54.516Z,100347.75
2022-11-06T01:02:56.366Z,100359.78
2022-11-06T01:04:00.842Z,100356.41
2022-11-06T01:05:02.636Z,100347.88
2022-11-06T01:06:19.883Z,100363.38
2022-11-06T01:07:21.736Z,100364.22
2022-11-06T01:08:23.596Z,100327.34
2022-11-06T01:09:27.468Z,100357.38
2022-11-06T01:10:29.227Z,100355.63
2022-11-06T01:11:59.422Z,100341.91
2022-11-06T01:12:58.976Z,100365.13
2022-11-06T01:14:02.089Z,100358.28
2022-11-06T01:15:04.318Z,100349.78
2022-11-06T01:16:08.711Z,100351.47
2022-11-06T01:17:10.399Z,100353.19
2022-11-06T01:18:12.273Z,100336.94
2022-11-06T01:19:16.054Z,100353.28
2022-11-06T01:20:18.181Z,100343.00
2022-11-06T01:21:26.242Z,100338.75
2022-11-06T01:22:28.394Z,100348.19
2022-11-06T01:23:30.019Z,100339.59
2022-11-06T01:24:31.850Z,100346.44
2022-11-06T01:25:33.850Z,100349.00
2022-11-06T01:26:39.353Z,100347.22
2022-11-06T01:27:44.814Z,100347.13
2022-11-06T01:28:47.570Z,100348.00
2022-11-06T01:29:50.235Z,100351.44
2022-11-06T01:30:53.389Z,100342.84
2022-11-06T01:31:57.350Z,100342.00
2022-11-06T01:32:59.686Z,100347.19
2022-11-06T01:34:03.056Z,100349.81
2022-11-06T01:35:05.057Z,100339.50
2022-11-06T01:36:10.250Z,100344.69
2022-11-06T01:37:14.721Z,100334.38
2022-11-06T01:38:17.815Z,100346.44
2022-11-06T01:39:21.020Z,100347.34
2022-11-06T01:40:22.552Z,100340.41
2022-11-06T01:41:34.221Z,100341.25
2022-11-06T01:42:38.340Z,100341.28
2022-11-06T01:43:50.624Z,100337.03
2022-11-06T01:45:24.033Z,100336.13
2022-11-06T01:46:29.731Z,100336.94
2022-11-06T01:47:31.487Z,100330.91
2022-11-06T01:48:33.394Z,100317.19
2022-11-06T01:49:38.497Z,100327.47
2022-11-06T01:50:42.462Z,100312.84
2022-11-06T01:51:50.868Z,100321.38
2022-11-06T01:52:53.226Z,100300.75
2022-11-06T01:53:56.120Z,100317.94
2022-11-06T01:55:06.815Z,100309.34
2022-11-06T01:56:12.304Z,100311.03
2022-11-06T01:57:14.703Z,100302.41
2022-11-06T01:58:21.060Z,100308.34
2022-11-06T01:59:26.455Z,100304.88
2022-11-06T02:00:30.336Z,100302.31
2022-11-06T02:01:32.579Z,100295.38
2022-11-06T02:02:35.785Z,100308.22
2022-11-06T02:03:40.632Z,100298.69
2022-11-06T02:04:46.386Z,100294.38
2022-11-06T02:05:49.735Z,100291.78
2022-11-06T02:06:53.613Z,100287.38
2022-11-06T02:07:56.858Z,100283.91
2022-11-06T02:09:00.099Z,100282.16
2022-11-06T02:10:01.833Z,100264.13
2022-11-06T02:11:03.756Z,100275.16
2022-11-06T02:12:19.418Z,100274.22
2022-11-06T02:13:54.918Z,100270.72
2022-11-06T02:15:16.945Z,100262.94
2022-11-06T02:16:24.483Z,100255.19
2022-11-06T02:17:52.748Z,100247.53
2022-11-06T02:19:21.599Z,100249.97
2022-11-06T02:20:31.058Z,100245.72
2022-11-06T02:21:53.060Z,100250.84
2022-11-06T02:23:20.889Z,100243.91
2022-11-06T02:24:31.464Z,100240.50
2022-11-06T02:26:01.287Z,100226.66
2022-11-06T02:27:07.296Z,100215.47
2022-11-06T02:28:23.470Z,100227.53
2022-11-06T02:29:35.394Z,100217.16
2022-11-06T02:30:44.027Z,100216.34
2022-11-06T02:31:47.863Z,100221.50
2022-11-06T02:33:04.508Z,100215.47
2022-11-06T02:34:12.488Z,100205.16
2022-11-06T02:35:32.356Z,100210.22
2022-11-06T02:36:40.275Z,100217.19
2022-11-06T02:37:45.064Z,100181.16
2022-11-06T02:38:53.713Z,100210.22
2022-11-06T02:39:59.076Z,100194.75
2022-11-06T02:41:09.004Z,100216.25
2022-11-06T02:42:15.319Z,100214.44
2022-11-06T02:43:19.918Z,100210.13
2022-11-06T02:44:27.381Z,100210.84
2022-11-06T02:45:32.111Z,100209.06
2022-11-06T02:46:38.631Z,100212.56
2022-11-06T02:47:42.609Z,100191.97
2022-11-06T02:48:52.053Z,100206.50
2022-11-06T02:50:06.349Z,100207.41
2022-11-06T02:51:12.852Z,100207.31
2022-11-06T02:52:29.303Z,100216.00
2022-11-06T02:53:33.024Z,100211.69
2022-11-06T02:54:38.873Z,100210.91
2022-11-06T02:55:49.095Z,100202.31
2022-11-06T02:56:54.103Z,100203.19
2022-11-06T02:58:03.401Z,100200.53
2022-11-06T02:59:12.211Z,100217.69
2022-11-06T03:00:16.974Z,100203.06
2022-11-06T03:01:22.809Z,100206.50
2022-11-06T03:02:32.306Z,100209.13
2022-11-06T03:03:39.732Z,100202.34
2022-11-06T03:05:17.614Z,100210.91
2022-11-06T03:06:45.469Z,100219.50
2022-11-06T03:07:54.339Z,100210.91
2022-11-06T03:09:07.277Z,100213.53
2022-11-06T03:10:11.093Z,100222.13
2022-11-06T03:11:30.275Z,100219.53
2022-11-06T03:12:44.934Z,100217.78
2022-11-06T03:13:54.422Z,100209.19
2022-11-06T03:14:58.992Z,100209.22
2022-11-06T03:16:05.398Z,100203.16
2022-11-06T03:17:21.247Z,100204.09
2022-11-06T03:18:32.112Z,100199.63
2022-11-06T03:19:56.076Z,100209.16
2022-11-06T03:21:24.439Z,100201.44
2022-11-06T03:22:35.612Z,100211.03
2022-11-06T03:23:45.623Z,100211.03
2022-11-06T03:24:51.793Z,100188.72
2022-11-06T03:26:01.299Z,100224.00
2022-11-06T03:27:12.073Z,100211.91
2022-11-06T03:28:37.447Z,100206.75
2022-11-06T03:29:47.761Z,100205.91
2022-11-06T03:30:54.594Z,100195.53
2022-11-06T03:32:07.859Z,100192.88
2022-11-06T03:33:25.481Z,100185.13
2022-11-06T03:34:36.382Z,100185.25
2022-11-06T03:35:50.234Z,100179.22
2022-11-06T03:37:03.905Z,100192.16
2022-11-06T03:38:19.386Z,100187.88
2022-11-06T03:39:28.794Z,100189.53
2022-11-06T03:40:34.899Z,100154.31
2022-11-06T03:41:46.360Z,100175.66
2022-11-06T03:42:49.372Z,100165.25
2022-11-06T03:43:55.030Z,100173.00
2022-11-06T03:45:03.433Z,100169.56
2022-11-06T03:46:11.272Z,100163.59
2022-11-06T03:47:22.272Z,100155.03
2022-11-06T03:48:35.572Z,100164.50
2022-11-06T03:49:41.630Z,100164.44
2022-11-06T03:51:07.197Z,100170.53
2022-11-06T03:52:22.626Z,100144.00
2022-11-06T03:53:33.905Z,100165.47
2022-11-06T03:54:43.152Z,100164.72
2022-11-06T03:55:58.341Z,100164.72
2022-11-06T03:57:10.004Z,100157.06
2022-11-06T03:58:18.554Z,100167.31
2022-11-06T03:59:25.293Z,100148.44
2022-11-06T04:00:27.163Z,100159.63
2022-11-06T04:01:33.583Z,100160.44
2022-11-06T04:02:41.001Z,100159.66
2022-11-06T04:03:54.449Z,100143.38
2022-11-06T04:05:00.520Z,100128.66
2022-11-06T04:06:25.060Z,100144.03
2022-11-06T04:07:36.684Z,100132.75
2022-11-06T04:08:58.681Z,100102.69
2022-11-06T04:10:23.796Z,100120.69
2022-11-06T04:11:48.200Z,100139.56
2022-11-06T04:13:11.067Z,100132.69
2022-11-06T04:14:16.329Z,100145.66
2022-11-06T04:15:21.767Z,100135.25
2022-11-06T04:16:32.265Z,100132.63
2022-11-06T04:17:34.675Z,100129.34
2022-11-06T04:18:36.666Z,100137.09
2022-11-06T04:19:43.863Z,100143.97
2022-11-06T04:21:18.897Z,100136.34
2022-11-06T04:22:38.965Z,100152.72
2022-11-06T04:24:44.445Z,100157.91
2022-11-06T04:26:20.909Z,100150.22
2022-11-06T04:27:27.605Z,100152.88
2022-11-06T04:28:35.851Z,100158.91
2022-11-06T04:29:48.847Z,100158.03
2022-11-06T04:31:09.854Z,100161.53
2022-11-06T04:32:16.153Z,100168.41
2022-11-06T04:33:31.229Z,100162.41
2022-11-06T04:34:47.444Z,100157.19
2022-11-06T04:36:00.943Z,100160.66
2022-11-06T04:37:29.338Z,100147.81
2022-11-06T04:38:50.446Z,100166.81
2022-11-06T04:40:12.091Z,100166.94
2022-11-06T04:41:20.412Z,100171.31
2022-11-06T04:42:33.209Z,100168.72
2022-11-06T04:43:59.107Z,100167.97
2022-11-06T04:45:06.991Z,100169.69
2022-11-06T04:46:12.381Z,100180.88
2022-11-06T04:47:20.677Z,100167.91
2022-11-06T04:48:23.441Z,100174.81
2022-11-06T04:49:29.625Z,100177.47
2022-11-06T04:50:36.823Z,100176.66
2022-11-06T04:51:40.395Z,100174.13
2022-11-06T04:52:43.836Z,100176.81
2022-11-06T04:53:47.944Z,100166.59
2022-11-06T04:54:52.670Z,100172.59
2022-11-06T04:56:00.439Z,100194.16
2022-11-06T04:57:03.677Z,100195.84
2022-11-06T04:58:05.257Z,100207.13
2022-11-06T04:59:09.384Z,100211.47
2022-11-06T05:00:14.393Z,100208.81
2022-11-06T05:01:16.049Z,100210.53
2022-11-06T05:02:18.419Z,100202.78
2022-11-06T05:03:20.376Z,100195.13
2022-11-06T05:04:22.949Z,100193.34
2022-11-06T05:05:28.061Z,100197.69
2022-11-06T05:06:30.546Z,100200.38
2022-11-06T05:07:32.278Z,100181.53
2022-11-06T05:08:33.958Z,100182.44
2022-11-06T05:09:38.613Z,100185.88
2022-11-06T05:10:41.807Z,100191.94
2022-11-06T05:11:43.437Z,100184.13
2022-11-06T05:12:47.642Z,100188.34
2022-11-06T05:13:49.239Z,100174.56
2022-11-06T05:14:51.308Z,100190.91
2022-11-06T05:15:57.672Z,100182.31
2022-11-06T05:16:59.761Z,100181.53
2022-11-06T05:18:01.509Z,100163.53
2022-11-06T05:19:03.964Z,100179.88
2022-11-06T05:20:06.250Z,100188.53
2022-11-06T05:21:26.816Z,100162.78
2022-11-06T05:22:47.326Z,100189.47
2022-11-06T05:23:49.167Z,100181.78
2022-11-06T05:24:51.185Z,100174.94
2022-11-06T05:25:52.989Z,100186.09
2022-11-06T05:26:59.423Z,100174.16
2022-11-06T05:28:03.287Z,100187.06
2022-11-06T05:29:05.357Z,100188.00
2022-11-06T05:30:11.027Z,100197.44
2022-11-06T05:31:12.980Z,100202.63
2022-11-06T05:32:15.799Z,100189.75
2022-11-06T05:33:17.630Z,100189.75
2022-11-06T05:34:21.299Z,100184.63
2022-11-06T05:35:24.271Z,100153.78
2022-11-06T05:36:26.299Z,100182.94
2022-11-06T05:37:28.441Z,100182.91
2022-11-06T05:38:30.406Z,100179.47
2022-11-06T05:39:40.542Z,100172.59
2022-11-06T05:40:43.731Z,100155.47
2022-11-06T05:41:45.512Z,100168.34
2022-11-06T05:42:50.739Z,100169.22
2022-11-06T05:43:55.965Z,100152.91
2022-11-06T05:44:58.031Z,100158.06
2022-11-06T05:46:00.812Z,100157.22
2022-11-06T05:47:05.337Z,100157.25
2022-11-06T05:48:07.836Z,100162.41
2022-11-06T05:49:10.755Z,100155.56
2022-11-06T05:50:12.660Z,100144.41
2022-11-06T05:51:18.343Z,100147.88
2022-11-06T05:52:21.323Z,100133.28
2022-11-06T05:53:24.085Z,100153.03
2022-11-06T05:54:26.026Z,100136.72
2022-11-06T05:55:30.113Z,100139.28
2022-11-06T05:56:33.219Z,100121.25
2022-11-06T05:57:36.525Z,100136.69
2022-11-06T05:58:38.836Z,100120.41
2022-11-06T05:59:41.299Z,100114.41
2022-11-06T06:00:43.284Z,100123.84
2022-11-06T06:01:44.920Z,100118.72
2022-11-06T06:02:47.240Z,100123.81
2022-11-06T06:03:49.148Z,100128.97
2022-11-06T06:04:51.709Z,100116.94
2022-11-06T06:05:54.170Z,100100.72
2022-11-06T06:06:55.946Z,100103.19
2022-11-06T06:08:00.422Z,100116.94
2022-11-06T06:09:02.451Z,100103.19
2022-11-06T06:10:04.702Z,100104.81
2022-11-06T06:11:08.686Z,100115.09
2022-11-06T06:12:15.373Z,100115.97
2022-11-06T06:13:17.568Z,100092.78
2022-11-06T06:14:21.572Z,100129.72
2022-11-06T06:15:23.467Z,100121.06
2022-11-06T06:16:25.144Z,100093.59
2022-11-06T06:17:27.945Z,100109.91
2022-11-06T06:18:30.083Z,100075.59
2022-11-06T06:19:32.684Z,100108.16
2022-11-06T06:20:35.209Z,100114.16
2022-11-06T06:21:37.369Z,100097.84
2022-11-06T06:22:39.630Z,100103.88
2022-11-06T06:23:42.036Z,100103.81
2022-11-06T06:24:44.636Z,100084.97
2022-11-06T06:25:47.811Z,100091.78
2022-11-06T06:26:53.517Z,100102.13
2022-11-06T06:27:58.473Z,100089.22
2022-11-06T06:29:00.166Z,100097.78
2022-11-06T06:30:02.705Z,100089.19
2022-11-06T06:31:05.943Z,100081.44
2022-11-06T06:32:08.991Z,100060.03
2022-11-06T06:33:16.391Z,100084.75
2022-11-06T06:34:19.683Z,100072.66
2022-11-06T06:35:21.389Z,100065.78
2022-11-06T06:36:23.840Z,100064.00
2022-11-06T06:37:25.511Z,100070.78
2022-11-06T06:38:27.254Z,100075.97
2022-11-06T06:39:28.932Z,100075.91
2022-11-06T06:40:30.780Z,100063.81
2022-11-06T06:41:33.297Z,100069.78
2022-11-06T06:42:35.433Z,100045.72
2022-11-06T06:43:37.048Z,100044.81
2022-11-06T06:44:40.901Z,100054.22
2022-11-06T06:45:42.517Z,100047.38
2022-11-06T06:46:46.047Z,100046.50
2022-11-06T06:47:47.946Z,100025.84
2022-11-06T06:48:49.606Z,100027.50
2022-11-06T06:49:52.377Z,100041.19
2022-11-06T06:50:57.258Z,100044.63
2022-11-06T06:51:59.222Z,100037.72
2022-11-06T06:53:03.971Z,100030.00
2022-11-06T06:54:07.286Z,100026.53
2022-11-06T06:55:10.179Z,100029.13
2022-11-06T06:56:13.445Z,100017.03
2022-11-06T06:57:15.390Z,100005.84
2022-11-06T06:58:18.251Z,100008.41
2022-11-06T06:59:20.013Z,100009.28
2022-11-06T07:00:21.707Z,99990.41
2022-11-06T07:01:26.493Z,99980.00
2022-11-06T07:02:31.009Z,99999.69
2022-11-06T07:03:34.183Z,99990.13
2022-11-06T07:04:36.127Z,99977.16
2022-11-06T07:05:38.839Z,99989.91
2022-11-06T07:06:42.210Z,99996.69
2022-11-06T07:07:43.825Z,99972.44
2022-11-06T07:08:45.769Z,99956.94
2022-11-06T07:09:49.135Z,99979.16
2022-11-06T07:10:50.993Z,99961.06
2022-11-06T07:11:53.100Z,99982.56
2022-11-06T07:12:54.798Z,99951.56
2022-11-06T07:13:56.455Z,99957.50
2022-11-06T07:14:59.736Z,99960.78
2022-11-06T07:16:07.536Z,99947.91
2022-11-06T07:17:09.126Z,99955.44
2022-11-06T07:18:10.985Z,99958.81
2022-11-06T07:19:12.891Z,99916.09
2022-11-06T07:20:14.693Z,99926.09
2022-11-06T07:21:18.351Z,99942.19
2022-11-06T07:22:29.532Z,99938.78
2022-11-06T07:23:38.679Z,99945.53
2022-11-06T07:24:40.858Z,99935.84
2022-11-06T07:25:42.689Z,99935.75
2022-11-06T07:26:45.778Z,99934.81
2022-11-06T07:27:47.369Z,99938.97
2022-11-06T07:28:50.362Z,99934.34
2022-11-06T07:29:53.385Z,99922.13
2022-11-06T07:31:01.891Z,99927.91
2022-11-06T07:32:04.062Z,99909.69
2022-11-06T07:33:07.172Z,99930.59
2022-11-06T07:34:10.855Z,99934.28
2022-11-06T07:35:12.874Z,99943.22
2022-11-06T07:36:15.113Z,99920.53
2022-11-06T07:37:16.785Z,99928.81
2022-11-06T07:38:18.657Z,99927.78
2022-11-06T07:39:20.243Z,99938.22
2022-11-06T07:40:22.131Z,99935.50
2022-11-06T07:41:23.753Z,99935.53
2022-11-06T07:42:28.499Z,99922.97
2022-11-06T07:43:31.340Z,99948.47
2022-11-06T07:44:33.436Z,99953.31
2022-11-06T07:45:38.090Z,99956.75
2022-11-06T07:46:42.371Z,99918.81
2022-11-06T07:47:44.286Z,99952.19
2022-11-06T07:48:47.497Z,99931.59
2022-11-06T07:49:51.161Z,99949.09
2022-11-06T07:50:53.384Z,99921.78
2022-11-06T07:51:57.522Z,99960.59
2022-11-06T07:53:03.252Z,99935.56
2022-11-06T07:54:05.307Z,99969.72
2022-11-06T07:55:10.421Z,99954.25
2022-11-06T07:56:13.941Z,99973.94
2022-11-06T07:57:15.634Z,99971.81
2022-11-06T07:58:19.163Z,99981.78
2022-11-06T07:59:24.867Z,99976.19
2022-11-06T08:00:28.238Z,99985.59
2022-11-06T08:01:31.453Z,100010.06
2022-11-06T08:02:34.109Z,99978.66
2022-11-06T08:03:36.764Z,99998.84
2022-11-06T08:04:40.926Z,100004.94
2022-11-06T08:05:45.100Z,99998.78
2022-11-06T08:06:48.270Z,100002.75
2022-11-06T08:07:51.174Z,100008.63
2022-11-06T08:08:58.687Z,100003.25
2022-11-06T08:10:02.695Z,100009.97
2022-11-06T08:11:10.345Z,100007.78
2022-11-06T08:12:14.842Z,99997.22
2022-11-06T08:13:19.350Z,100013.53
2022-11-06T08:14:22.727Z,100025.16
2022-11-06T08:15:25.323Z,100017.34
2022-11-06T08:16:28.935Z,100007.91
2022-11-06T08:17:32.644Z,99996.19
2022-11-06T08:18:35.321Z,99991.84
2022-11-06T08:19:37.297Z,100006.91
2022-11-06T08:20:41.147Z,100041.63
2022-11-06T08:21:43.575Z,100047.50
2022-11-06T08:22:47.204Z,100052.63
2022-11-06T08:23:48.974Z,100062.63
2022-11-06T08:24:51.116Z,100011.00
2022-11-06T08:25:58.169Z,100066.03
2022-11-06T08:27:00.975Z,100070.56
2022-11-06T08:28:12.891Z,100069.03
2022-11-06T08:29:16.672Z,100073.19
2022-11-06T08:30:18.730Z,100072.78
2022-11-06T08:31:21.455Z,100080.50
2022-11-06T08:32:23.069Z,100081.13
2022-11-06T08:33:25.109Z,100087.28
2022-11-06T08:34:27.238Z,100088.06
2022-11-06T08:35:34.695Z,100073.28
2022-11-06T08:36:45.609Z,100067.34
2022-11-06T08:37:52.594Z,100047.31
2022-11-06T08:38:56.682Z,100066.66
2022-11-06T08:39:58.603Z,100069.44
2022-11-06T08:41:12.702Z,100058.84
2022-11-06T08:42:15.062Z,100087.56
2022-11-06T08:43:20.433Z,100067.03
2022-11-06T08:44:24.467Z,100053.09
2022-11-06T08:45:26.293Z,100058.19
2022-11-06T08:46:28.871Z,100064.41
2022-11-06T08:47:31.325Z,100054.38
2022-11-06T08:48:34.462Z,100056.31
2022-11-06T08:49:36.988Z,100049.81
2022-11-06T08:50:40.356Z,100038.69
2022-11-06T08:51:42.460Z,100036.34
2022-11-06T08:52:44.913Z,100001.47
2022-11-06T08:53:47.563Z,100022.28
2022-11-06T08:54:50.992Z,100017.13
2022-11-06T08:55:53.225Z,100037.41
2022-11-06T08:56:55.237Z,100024.94
2022-11-06T08:57:59.917Z,100020.59
2022-11-06T08:59:01.789Z,99998.81
2022-11-06T09:00:08.558Z,99994.97
2022-11-06T09:01:12.777Z,99986.44
2022-11-06T09:02:15.704Z,99983.13
2022-11-06T09:03:18.275Z,99985.50
2022-11-06T09:04:22.933Z,99973.47
2022-11-06T09:05:24.687Z,99963.09
2022-11-06T09:06:27.685Z,99962.41
2022-11-06T09:07:29.738Z,99941.06
2022-11-06T09:08:31.876Z,99942.03
2022-11-06T09:09:35.280Z,99961.44
2022-11-06T09:10:38.344Z,99951.78
2022-11-06T09:11:43.196Z,99959.34
2022-11-06T09:12:45.065Z,99947.72
2022-11-06T09:13:49.146Z,99945.19
2022-11-06T09:14:51.180Z,99944.06
2022-11-06T09:15:52.980Z,99935.28
2022-11-06T09:16:56.875Z,99928.06
2022-11-06T09:17:58.689Z,99916.16
2022-11-06T09:19:04.369Z,99919.47
2022-11-06T09:20:07.974Z,99918.00
2022-11-06T09:21:10.057Z,99921.41
2022-11-06T09:22:11.925Z,99910.03
2022-11-06T09:23:16.324Z,99905.31
2022-11-06T09:24:27.547Z,99898.53
2022-11-06T09:25:42.368Z,99902.69
2022-11-06T09:26:45.953Z,99884.63
2022-11-06T09:27:58.601Z,99881.53
2022-11-06T09:29:01.175Z,99871.13
2022-11-06T09:30:02.935Z,99870.38
2022-11-06T09:31:05.938Z,99830.03
2022-11-06T09:32:07.768Z,99862.44
2022-11-06T09:33:13.486Z,99860.66
2022-11-06T09:34:15.979Z,99856.94
2022-11-06T09:35:18.598Z,99845.41
2022-11-06T09:36:20.414Z,99861.19
2022-11-06T09:37:22.327Z,99836.13
2022-11-06T09:38:24.043Z,99853.25
2022-11-06T09:39:26.282Z,99812.53
2022-11-06T09:40:31.027Z,99850.09
2022-11-06T09:41:57.311Z,99851.44
2022-11-06T09:43:58.071Z,99851.50
2022-11-06T09:44:59.683Z,99841.38
2022-11-06T09:46:12.534Z,99829.19
2022-11-06T09:47:21.402Z,99823.28
2022-11-06T09:48:31.275Z,99829.50
2022-11-06T09:49:44.881Z,99825.06
2022-11-06T09:50:56.589Z,99831.22
2022-11-06T09:52:22.899Z,99839.13
2022-11-06T09:53:24.903Z,99839.19
2022-11-06T09:54:32.067Z,99845.41
2022-11-06T09:55:40.135Z,99842.06
2022-11-06T09:56:46.152Z,99821.31
2022-11-06T09:58:42.501Z,99828.59
2022-11-06T09:59:46.388Z,99831.47
2022-11-06T10:00:51.689Z,99826.03
2022-11-06T10:02:01.770Z,99831.03
2022-11-06T10:03:35.781Z,99833.81
2022-11-06T10:04:58.428Z,99828.00
2022-11-06T10:06:05.557Z,99819.88
2022-11-06T10:07:25.251Z,99817.44
2022-11-06T10:08:31.299Z,99815.72
2022-11-06T10:09:36.886Z,99819.81
2022-11-06T10:10:47.686Z,99818.28
2022-11-06T10:12:15.845Z,99815.97
2022-11-06T10:13:32.320Z,99810.09
2022-11-06T10:14:59.784Z,99807.03
2022-11-06T10:16:14.796Z,99802.78
2022-11-06T10:17:43.257Z,99797.00
2022-11-06T10:19:03.626Z,99787.59
2022-11-06T10:20:25.455Z,99784.75
2022-11-06T10:21:42.281Z,99779.53
2022-11-06T10:23:25.735Z,99778.34
2022-11-06T10:24:51.946Z,99770.75
2022-11-06T10:26:12.018Z,99762.34
2022-11-06T10:27:26.542Z,99767.31
2022-11-06T10:28:55.296Z,99764.16
2022-11-06T10:30:03.502Z,99765.88
2022-11-06T10:31:23.249Z,99767.22
2022-11-06T10:32:30.943Z,99764.47
2022-11-06T10:33:46.367Z,99757.97
2022-11-06T10:34:52.736Z,99760.81
2022-11-06T10:36:09.915Z,99756.09
2022-11-06T10:37:28.138Z,99717.66
2022-11-06T10:38:36.259Z,99735.13
2022-11-06T10:39:38.045Z,99737.31
2022-11-06T10:40:45.824Z,99722.38
2022-11-06T10:41:56.153Z,99744.03
2022-11-06T10:43:12.550Z,99733.44
2022-11-06T10:44:24.252Z,99740.66
2022-11-06T10:45:29.774Z,99698.84
2022-11-06T10:46:41.462Z,99723.09
2022-11-06T10:47:52.002Z,99732.97
2022-11-06T10:49:01.515Z,99719.66
2022-11-06T10:50:08.429Z,99725.50
2022-11-06T10:51:16.678Z,99727.06
2022-11-06T10:52:41.491Z,99723.56
2022-11-06T10:53:55.474Z,99734.88
2022-11-06T10:55:03.320Z,99720.28
2022-11-06T10:56:23.430Z,99717.03
2022-11-06T10:57:54.637Z,99711.75
2022-11-06T10:58:56.777Z,99716.09
2022-11-06T10:59:59.622Z,99707.44
2022-11-06T11:01:04.250Z,99722.38
2022-11-06T11:02:24.229Z,99708.13
2022-11-06T11:03:37.161Z,99719.06
2022-11-06T11:04:39.080Z,99720.16
2022-11-06T11:05:43.032Z,99719.16
2022-11-06T11:06:44.784Z,99719.91
2022-11-06T11:07:48.821Z,99721.53
2022-11-06T11:08:52.205Z,99719.47
2022-11-06T11:09:54.875Z,99716.44
2022-11-06T11:11:05.914Z,99707.13
2022-11-06T11:12:28.418Z,99711.44
2022-11-06T11:13:30.210Z,99711.72
2022-11-06T11:14:32.246Z,99718.75
2022-11-06T11:15:47.570Z,99706.59
2022-11-06T11:16:49.385Z,99698.13
2022-11-06T11:18:12.946Z,99697.16
2022-11-06T11:19:16.454Z,99702.09
2022-11-06T11:20:34.428Z,99709.84
2022-11-06T11:21:36.230Z,99679.75
2022-11-06T11:22:37.978Z,99697.41
2022-11-06T11:23:39.584Z,99690.19
2022-11-06T11:24:59.012Z,99694.44
2022-11-06T11:26:26.229Z,99701.31
2022-11-06T11:27:30.337Z,99681.66
2022-11-06T11:28:36.210Z,99679.94
2022-11-06T11:29:48.412Z,99686.84
2022-11-06T11:31:08.285Z,99685.06
2022-11-06T11:32:15.627Z,99675.63
2022-11-06T11:33:22.077Z,99683.13
2022-11-06T11:34:27.253Z,99670.06
2022-11-06T11:35:31.255Z,99663.94
2022-11-06T11:36:55.812Z,99665.59
2022-11-06T11:38:14.206Z,99661.06
2022-11-06T11:39:18.553Z,99662.75
2022-11-06T11:40:27.291Z,99667.88
2022-11-06T11:41:29.484Z,99662.22
2022-11-06T11:42:32.821Z,99663.22
2022-11-06T11:43:37.864Z,99658.25
2022-11-06T11:45:03.262Z,99647.91
2022-11-06T11:46:10.751Z,99642.56
2022-11-06T11:47:25.504Z,99641.13
2022-11-06T11:48:27.278Z,99645.94
2022-11-06T11:49:59.027Z,99642.75
2022-11-06T11:51:25.804Z,99647.03
2022-11-06T11:52:27.884Z,99652.59
2022-11-06T11:53:31.264Z,99657.00
2022-11-06T11:54:35.990Z,99633.00
2022-11-06T11:55:42.719Z,99660.03
2022-11-06T11:57:04.815Z,99649.41
2022-11-06T11:58:37.213Z,99638.06
2022-11-06T11:59:53.283Z,99647.28
2022-11-06T12:00:58.748Z,99644.50
2022-11-06T12:02:27.951Z,99639.56
2022-11-06T12:03:44.090Z,99645.75
2022-11-06T12:04:50.446Z,99619.03
2022-11-06T12:05:54.010Z,99632.91
2022-11-06T12:06:59.307Z,99632.75
2022-11-06T12:08:02.410Z,99634.72
2022-11-06T12:09:04.733Z,99635.31
2022-11-06T12:10:34.437Z,99629.56
2022-11-06T12:11:36.210Z,99625.00
2022-11-06T12:12:39.476Z,99633.03
2022-11-06T12:13:41.536Z,99621.13
2022-11-06T12:14:44.855Z,99623.41
2022-11-06T12:15:58.196Z,99614.06
2022-11-06T12:17:11.739Z,99613.84
2022-11-06T12:18:17.301Z,99613.59
2022-11-06T12:19:22.212Z,99612.81
2022-11-06T12:20:52.685Z,99607.50
2022-11-06T12:21:59.091Z,99611.59
2022-11-06T12:23:03.240Z,99615.34
2022-11-06T12:24:18.247Z,99608.97
2022-11-06T12:25:25.788Z,99620.72
2022-11-06T12:26:54.505Z,99610.25
2022-11-06T12:28:01.678Z,99596.59
2022-11-06T12:29:28.268Z,99593.66
2022-11-06T12:30:33.147Z,99596.56
2022-11-06T12:32:02.414Z,99601.38
2022-11-06T12:33:16.362Z,99615.13
2022-11-06T12:34:33.141Z,99619.84
2022-11-06T12:35:41.742Z,99606.09
2022-11-06T12:36:55.319Z,99613.50
2022-11-06T12:38:34.935Z,99608.84
2022-11-06T12:39:41.487Z,99597.13
2022-11-06T12:40:50.859Z,99607.94
2022-11-06T12:41:55.105Z,99595.81
2022-11-06T12:42:59.569Z,99599.41
2022-11-06T12:44:01.965Z,99597.44
2022-11-06T12:45:04.845Z,99609.97
2022-11-06T12:46:29.218Z,99605.44
2022-11-06T12:47:51.740Z,99603.72
2022-11-06T12:49:03.341Z,99604.69
2022-11-06T12:50:27.224Z,99608.59
2022-11-06T12:51:47.809Z,99585.41
2022-11-06T12:53:03.438Z,99599.84
2022-11-06T12:54:58.128Z,99587.34
2022-11-06T12:56:26.898Z,99586.22
2022-11-06T12:57:56.478Z,99573.94
2022-11-06T12:59:31.406Z,99570.16
2022-11-06T13:01:17.757Z,99562.19
2022-11-06T13:02:38.206Z,99550.56